Decoded Metar for LETU ( in ) (IATA:) | Meteo·Mobile Aviation Weather
aviador You're here:

LETU Decoded Metar

in
Report Time2020-02-22 09:30:00
UTC Time2020-02-22 09:50:20
Flight Rules vfr VFR
Wind300° at 06 kt
Visibility9999 m
Phenomena:N/A
Clouds:N/A
Expected CloudBase > 2,400 ft AGL from Temp-Dew spread
CeilingNone
Temp08°C
Dew Point02°C (66% RH)
AAT4.2°C
QNH1034 hPa
Raw Report
METAR LETU 220930Z AUTO 30006KT 270V340 9999 NCD 08/02 Q1034=

Extra information for LETU:More info

Social comments